Time;durP1;ratioP1;P1;durP2;ratioP2;P2;SDS_P1;SDS_P2;PMS_P1;PMS_P2;Temp;Humidity;BMP_temperature;BMP_pressure;BME280_temperature;BME280_humidity;BME280_pressure;Samples;Min_cycle;Max_cycle;Signal;HPM_P1;HPM_P2
2021/05/25 00:01:32;;;;;;;7.28;4.60;;;18.80;61.00;;;;;;6125295;23;20177;-83
2021/05/25 00:04:00;;;;;;;7.50;4.53;;;18.90;60.90;;;;;;6149084;23;20158;-83
2021/05/25 00:06:27;;;;;;;10.52;4.70;;;18.80;61.00;;;;;;6149350;23;20159;-83
2021/05/25 00:08:53;;;;;;;5.95;4.45;;;18.80;61.10;;;;;;6148760;23;20158;-83
2021/05/25 00:11:19;;;;;;;8.55;4.72;;;18.80;61.10;;;;;;6173367;23;20132;-84
2021/05/25 00:13:45;;;;;;;6.43;4.70;;;18.80;60.90;;;;;;6148915;23;20197;-83
2021/05/25 00:16:10;;;;;;;8.80;4.70;;;18.80;61.30;;;;;;6148918;23;20194;-83
2021/05/25 00:18:37;;;;;;;8.80;4.47;;;18.80;61.30;;;;;;6125546;23;20154;-83
2021/05/25 00:21:05;;;;;;;7.53;4.65;;;18.80;61.20;;;;;;6149986;23;20123;-83
2021/05/25 00:23:30;;;;;;;7.63;4.95;;;18.80;61.20;;;;;;6149407;23;20138;-83
2021/05/25 00:25:57;;;;;;;6.10;4.32;;;18.80;61.20;;;;;;6149419;23;20201;-83
2021/05/25 00:28:24;;;;;;;12.00;4.80;;;18.80;61.00;;;;;;6148852;23;20131;-83
2021/05/25 00:30:50;;;;;;;8.70;5.10;;;18.80;60.80;;;;;;6149756;23;20214;-84
2021/05/25 00:33:16;;;;;;;6.80;4.03;;;18.80;61.10;;;;;;6149544;23;20166;-83
2021/05/25 00:35:42;;;;;;;7.10;4.95;;;18.80;61.30;;;;;;6174497;23;20132;-83
2021/05/25 00:38:09;;;;;;;8.82;5.00;;;18.80;60.90;;;;;;6124817;23;20234;-83
2021/05/25 00:40:44;;;;;;;6.45;4.32;;;18.80;62.10;;;;;;6149596;23;20638;-83
2021/05/25 00:43:11;;;;;;;8.73;4.85;;;18.70;61.10;;;;;;6148449;23;20190;-83
2021/05/25 00:45:39;;;;;;;7.20;4.60;;;18.70;61.20;;;;;;6149893;23;20583;-83
2021/05/25 00:48:08;;;;;;;6.43;4.47;;;18.70;61.00;;;;;;6173507;23;20532;-83
2021/05/25 00:50:34;;;;;;;6.07;4.57;;;18.80;61.10;;;;;;6148866;23;20177;-84
2021/05/25 00:53:09;;;;;;;11.38;5.10;;;18.80;60.90;;;;;;6148203;23;20262;-83
2021/05/25 00:55:38;;;;;;;8.25;4.63;;;18.80;61.10;;;;;;6174031;23;20142;-83
2021/05/25 00:58:08;;;;;;;6.70;4.82;;;18.70;61.00;;;;;;6173104;23;20134;-83
2021/05/25 01:01:01;;;;;;;7.10;4.57;;;18.80;60.90;;;;;;6148512;23;20143;-83
2021/05/25 01:03:29;;;;;;;6.78;4.57;;;18.70;60.70;;;;;;6146266;23;20165;-83
2021/05/25 01:05:56;;;;;;;8.65;4.30;;;18.80;61.10;;;;;;6124883;23;20153;-84
2021/05/25 01:08:32;;;;;;;6.53;4.68;;;18.70;60.90;;;;;;6173402;23;20471;-83
2021/05/25 01:11:05;;;;;;;7.70;4.90;;;18.80;61.20;;;;;;6173489;23;20123;-83
2021/05/25 01:13:41;;;;;;;6.90;4.60;;;18.70;61.20;;;;;;6173940;23;20170;-83
2021/05/25 01:16:07;;;;;;;8.00;4.65;;;18.70;61.00;;;;;;6150716;23;20194;-84
2021/05/25 01:18:36;;;;;;;8.20;4.88;;;18.80;60.90;;;;;;6149311;23;20182;-83
2021/05/25 01:21:08;;;;;;;8.55;4.80;;;18.70;61.00;;;;;;6149305;23;20270;-83
2021/05/25 01:23:36;;;;;;;8.63;4.80;;;18.70;61.00;;;;;;6172969;23;20145;-83
2021/05/25 01:26:03;;;;;;;6.70;5.05;;;18.70;60.90;;;;;;6173454;23;20216;-83
2021/05/25 01:28:34;;;;;;;7.50;4.38;;;18.70;61.10;;;;;;6147700;23;20170;-83
2021/05/25 01:31:02;;;;;;;7.43;4.57;;;18.70;60.90;;;;;;6124652;23;20172;-83
2021/05/25 01:33:30;;;;;;;7.18;4.65;;;18.70;61.00;;;;;;6173276;23;20677;-83
2021/05/25 01:35:57;;;;;;;8.48;4.60;;;18.70;61.00;;;;;;6149174;23;20147;-83
2021/05/25 01:38:25;;;;;;;6.47;4.90;;;18.70;60.90;;;;;;6172624;23;20211;-83
2021/05/25 01:40:55;;;;;;;6.20;4.55;;;18.70;60.70;;;;;;6147937;23;20146;-84
2021/05/25 01:43:22;;;;;;;7.82;5.03;;;18.70;61.00;;;;;;6173605;23;20165;-83
2021/05/25 01:45:48;;;;;;;8.70;4.50;;;18.70;61.10;;;;;;6147647;23;20143;-83
2021/05/25 01:48:16;;;;;;;6.72;4.68;;;18.70;60.90;;;;;;6173136;23;20206;-83
2021/05/25 01:50:45;;;;;;;7.75;4.78;;;18.70;61.20;;;;;;6172473;23;20131;-82
2021/05/25 01:53:22;;;;;;;6.25;4.63;;;18.70;61.00;;;;;;6148508;23;20178;-83
2021/05/25 01:55:57;;;;;;;8.63;4.63;;;18.70;61.10;;;;;;6173827;23;20131;-83
2021/05/25 01:58:29;;;;;;;7.35;4.70;;;18.70;61.20;;;;;;6172763;23;20134;-83
2021/05/25 02:01:03;;;;;;;8.70;4.85;;;18.70;61.30;;;;;;6148586;23;20222;-83
2021/05/25 02:03:32;;;;;;;7.50;5.13;;;18.70;61.30;;;;;;6148384;23;20143;-83
2021/05/25 02:06:00;;;;;;;7.97;4.82;;;18.70;61.30;;;;;;6172817;23;20139;-83
2021/05/25 02:08:28;;;;;;;7.05;4.50;;;18.70;61.20;;;;;;6173257;23;20154;-82
2021/05/25 02:10:55;;;;;;;7.45;4.57;;;18.70;61.10;;;;;;6171701;23;20157;-83
2021/05/25 02:13:24;;;;;;;7.45;4.78;;;18.70;61.20;;;;;;6198627;23;20167;-83
2021/05/25 02:15:51;;;;;;;6.22;4.50;;;18.70;61.20;;;;;;6172298;23;20194;-84
2021/05/25 02:18:22;;;;;;;6.55;4.72;;;18.70;61.20;;;;;;6148565;23;20150;-83
2021/05/25 02:20:55;;;;;;;9.10;5.18;;;18.70;61.20;;;;;;6199332;23;20127;-83
2021/05/25 02:23:21;;;;;;;7.40;4.68;;;18.70;61.20;;;;;;6148556;23;20147;-84
2021/05/25 02:25:48;;;;;;;10.70;4.43;;;18.70;61.30;;;;;;6148045;23;20537;-84
2021/05/25 02:28:14;;;;;;;8.13;4.68;;;18.70;61.30;;;;;;6148216;23;20126;-83
2021/05/25 02:30:40;;;;;;;7.28;4.63;;;18.70;61.30;;;;;;6123467;23;20157;-85
2021/05/25 02:33:14;;;;;;;8.05;5.10;;;18.70;61.30;;;;;;6123276;23;20174;-84
2021/05/25 02:35:49;;;;;;;7.30;5.10;;;18.70;61.30;;;;;;6147281;23;20144;-84
2021/05/25 02:38:16;;;;;;;7.63;4.97;;;18.70;61.30;;;;;;6147980;23;20139;-83
2021/05/25 02:40:44;;;;;;;8.10;5.13;;;18.70;61.20;;;;;;6171972;23;20141;-83
2021/05/25 02:43:10;;;;;;;6.90;4.60;;;18.70;61.30;;;;;;6171484;23;20143;-83
2021/05/25 02:45:39;;;;;;;10.20;5.03;;;18.60;61.20;;;;;;6146312;23;20147;-83
2021/05/25 02:48:08;;;;;;;7.43;4.93;;;18.70;61.20;;;;;;6171198;23;20142;-83
2021/05/25 02:50:34;;;;;;;7.95;4.60;;;18.60;61.20;;;;;;6122238;23;20138;-83
2021/05/25 02:53:02;;;;;;;7.68;4.40;;;18.60;61.20;;;;;;6121229;23;20194;-83
2021/05/25 02:55:31;;;;;;;8.68;4.57;;;18.70;61.30;;;;;;6121551;23;20136;-84
2021/05/25 02:57:59;;;;;;;9.48;4.75;;;18.70;61.20;;;;;;6122565;23;20139;-83
2021/05/25 03:00:35;;;;;;;5.35;4.40;;;18.60;61.30;;;;;;6147555;23;20138;-84
2021/05/25 03:03:01;;;;;;;7.57;4.80;;;18.60;61.20;;;;;;6148136;23;20474;-83
2021/05/25 03:05:32;;;;;;;7.07;4.80;;;18.60;61.10;;;;;;6122582;23;20146;-83
2021/05/25 03:07:59;;;;;;;7.93;4.72;;;18.60;61.20;;;;;;6146878;23;20174;-82
2021/05/25 03:10:29;;;;;;;7.55;5.00;;;18.60;61.30;;;;;;6147276;23;20131;-84
2021/05/25 03:12:55;;;;;;;8.35;5.20;;;18.60;61.30;;;;;;6146820;23;20225;-83
2021/05/25 03:15:40;;;;;;;6.30;4.55;;;18.60;61.30;;;;;;6123102;23;20261;-84
2021/05/25 03:18:18;;;;;;;6.85;4.60;;;18.60;61.40;;;;;;6146475;23;20515;-83
2021/05/25 03:20:51;;;;;;;7.30;4.70;;;18.60;61.30;;;;;;6171980;23;20123;-83
2021/05/25 03:23:20;;;;;;;6.20;4.60;;;18.60;61.40;;;;;;6148327;23;20143;-83
2021/05/25 03:25:59;;;;;;;6.97;4.78;;;18.60;61.30;;;;;;6200071;23;20158;-83
2021/05/25 03:28:25;;;;;;;9.05;4.95;;;18.60;61.40;;;;;;6175037;23;20126;-83
2021/05/25 03:30:52;;;;;;;7.63;4.95;;;18.60;61.30;;;;;;6125204;23;20139;-83
2021/05/25 03:33:27;;;;;;;7.20;4.28;;;18.60;61.40;;;;;;6149054;23;20174;-83
2021/05/25 03:35:52;;;;;;;6.20;4.80;;;18.60;61.30;;;;;;6173536;23;20202;-83
2021/05/25 03:38:19;;;;;;;5.82;4.60;;;18.60;61.30;;;;;;6149903;23;20177;-83
2021/05/25 03:40:45;;;;;;;8.30;4.72;;;18.60;61.20;;;;;;6172980;23;20213;-84
2021/05/25 03:43:11;;;;;;;6.95;4.43;;;18.60;61.30;;;;;;6148797;23;20139;-83
2021/05/25 03:45:37;;;;;;;6.90;4.53;;;18.60;61.30;;;;;;6125947;23;20226;-84
2021/05/25 03:48:06;;;;;;;8.07;5.03;;;18.60;61.50;;;;;;6173731;23;20173;-84
2021/05/25 03:50:35;;;;;;;6.70;4.85;;;18.60;61.40;;;;;;6149389;23;20146;-83
2021/05/25 03:53:01;;;;;;;6.60;4.40;;;18.60;61.40;;;;;;6173473;23;20661;-83
2021/05/25 04:00:40;;;;;;;6.03;4.82;;;18.60;61.50;;;;;;6158033;23;20161;-83
2021/05/25 04:03:06;;;;;;;8.35;4.80;;;18.60;61.50;;;;;;6125888;23;20142;-84
2021/05/25 04:05:32;;;;;;;7.57;4.40;;;18.60;61.50;;;;;;6123787;23;20219;-83
2021/05/25 04:07:58;;;;;;;6.80;4.65;;;18.60;61.40;;;;;;6150008;23;20139;-83
2021/05/25 04:10:24;;;;;;;6.25;4.50;;;18.60;61.50;;;;;;6174628;23;20135;-82
2021/05/25 04:12:50;;;;;;;6.55;4.43;;;18.60;61.30;;;;;;6125882;23;20254;-83
2021/05/25 04:15:16;;;;;;;7.38;4.63;;;18.60;61.40;;;;;;6173855;23;20213;-82
2021/05/25 04:17:42;;;;;;;5.85;4.40;;;18.60;61.30;;;;;;6148036;23;20135;-83
2021/05/25 04:20:11;;;;;;;8.02;4.57;;;18.60;61.20;;;;;;6122331;23;20134;-83
2021/05/25 04:22:37;;;;;;;6.97;4.72;;;18.60;60.90;;;;;;6146715;23;20147;-84
2021/05/25 04:25:05;;;;;;;5.93;4.32;;;18.60;61.10;;;;;;6122230;23;20138;-83
2021/05/25 04:27:31;;;;;;;7.88;4.55;;;18.60;61.00;;;;;;6147180;23;20135;-83
2021/05/25 04:29:57;;;;;;;5.90;4.10;;;18.60;60.90;;;;;;6121979;23;20191;-84
2021/05/25 04:32:22;;;;;;;8.07;4.55;;;18.60;61.40;;;;;;6147075;23;20135;-83
2021/05/25 04:34:48;;;;;;;7.65;4.68;;;18.60;60.80;;;;;;6147910;23;20130;-84
2021/05/25 04:37:14;;;;;;;6.75;4.50;;;18.60;60.80;;;;;;6125591;23;20190;-83
2021/05/25 04:39:42;;;;;;;7.00;4.50;;;18.60;60.90;;;;;;6125518;23;20139;-83
2021/05/25 04:42:08;;;;;;;6.53;4.63;;;18.60;61.00;;;;;;6145853;23;20145;-83
2021/05/25 04:44:35;;;;;;;6.70;4.25;;;18.60;60.80;;;;;;6169528;23;20150;-83
2021/05/25 04:47:00;;;;;;;7.15;4.47;;;18.60;61.00;;;;;;6196787;23;20240;-84
2021/05/25 04:49:26;;;;;;;5.85;4.57;;;18.60;60.90;;;;;;6145925;23;20127;-83
2021/05/25 04:51:53;;;;;;;7.13;4.38;;;18.60;60.80;;;;;;6121221;23;20169;-83
2021/05/25 04:54:23;;;;;;;7.53;4.70;;;18.60;60.90;;;;;;6170295;23;20178;-84
2021/05/25 04:56:52;;;;;;;6.90;4.32;;;18.60;61.00;;;;;;6144665;23;20147;-84
2021/05/25 04:59:18;;;;;;;7.90;4.78;;;18.60;61.10;;;;;;6122129;23;20168;-83
2021/05/25 05:01:44;;;;;;;5.72;4.30;;;18.60;61.10;;;;;;6120977;23;20142;-83
2021/05/25 05:04:10;;;;;;;6.95;4.78;;;18.60;60.60;;;;;;6146132;23;20143;-84
2021/05/25 05:06:36;;;;;;;6.43;4.15;;;18.60;60.60;;;;;;6145753;23;20189;-83
2021/05/25 05:09:03;;;;;;;7.15;4.63;;;18.60;60.90;;;;;;6119736;23;20182;-83
2021/05/25 05:11:30;;;;;;;6.30;4.55;;;18.60;60.70;;;;;;6120947;23;20139;-83
2021/05/25 05:13:58;;;;;;;6.85;4.47;;;18.60;60.80;;;;;;6196597;23;20159;-84
2021/05/25 05:16:28;;;;;;;5.90;4.80;;;18.60;60.90;;;;;;6121529;23;20198;-83
2021/05/25 05:19:00;;;;;;;7.68;4.50;;;18.60;60.80;;;;;;6196784;23;20134;-84
2021/05/25 05:21:29;;;;;;;4.95;3.90;;;18.60;61.00;;;;;;6196742;23;20127;-83
2021/05/25 05:23:56;;;;;;;5.20;3.97;;;18.60;60.90;;;;;;6173290;23;20170;-83
2021/05/25 05:26:23;;;;;;;6.65;4.32;;;18.50;60.80;;;;;;6174461;23;20214;-84
2021/05/25 05:28:49;;;;;;;6.97;4.32;;;18.50;60.80;;;;;;6149771;23;20143;-82
2021/05/25 05:31:17;;;;;;;6.15;4.50;;;18.60;60.50;;;;;;6150932;23;20151;-81
2021/05/25 05:33:43;;;;;;;6.30;4.13;;;18.60;60.50;;;;;;6175319;23;20173;-81
2021/05/25 05:36:10;;;;;;;7.22;4.38;;;18.60;60.40;;;;;;6149618;23;20571;-81
2021/05/25 05:38:37;;;;;;;5.85;4.50;;;18.60;60.60;;;;;;6150817;23;20229;-81
2021/05/25 05:41:05;;;;;;;5.35;4.13;;;18.60;60.50;;;;;;6174746;23;20142;-81
2021/05/25 05:43:32;;;;;;;7.00;4.55;;;18.60;60.50;;;;;;6150223;23;20151;-81
2021/05/25 05:46:02;;;;;;;5.35;4.18;;;18.60;60.70;;;;;;6149753;23;20502;-82
2021/05/25 05:48:33;;;;;;;5.85;4.13;;;18.60;60.70;;;;;;6174998;23;20575;-81
2021/05/25 05:50:59;;;;;;;6.68;4.05;;;18.60;60.80;;;;;;6174574;23;20138;-81
2021/05/25 05:53:27;;;;;;;5.65;4.40;;;18.60;60.80;;;;;;6174030;23;20170;-82
2021/05/25 05:55:54;;;;;;;6.13;4.30;;;18.60;60.70;;;;;;6200594;23;20131;-82
2021/05/25 05:58:21;;;;;;;6.75;4.40;;;18.60;60.60;;;;;;6150235;23;20157;-82
2021/05/25 06:00:48;;;;;;;5.68;4.20;;;18.60;60.70;;;;;;6175275;23;20173;-81
2021/05/25 06:03:23;;;;;;;5.32;4.18;;;18.60;60.60;;;;;;6200975;23;20145;-82
2021/05/25 06:05:58;;;;;;;5.47;4.10;;;18.60;60.70;;;;;;6201310;23;20180;-82
2021/05/25 06:08:25;;;;;;;6.40;4.60;;;18.60;60.70;;;;;;6174883;23;20137;-83
2021/05/25 06:10:54;;;;;;;6.40;4.07;;;18.60;60.70;;;;;;6200990;23;20496;-82
2021/05/25 06:13:28;;;;;;;6.20;4.18;;;18.60;60.40;;;;;;6174134;23;20205;-82
2021/05/25 06:16:03;;;;;;;6.57;4.28;;;18.60;60.50;;;;;;6173326;23;20190;-82
2021/05/25 06:18:32;;;;;;;6.13;4.45;;;18.60;60.50;;;;;;6150202;23;20149;-83
2021/05/25 06:21:01;;;;;;;4.60;3.97;;;18.60;60.20;;;;;;6148556;23;20139;-82
2021/05/25 06:23:29;;;;;;;6.20;4.00;;;18.60;60.50;;;;;;6148753;23;20151;-82
2021/05/25 06:25:59;;;;;;;5.03;3.88;;;18.60;60.00;;;;;;6123439;23;20150;-83
2021/05/25 06:28:34;;;;;;;5.72;4.30;;;18.60;60.60;;;;;;6146170;23;20146;-83
2021/05/25 06:31:01;;;;;;;4.95;3.88;;;18.60;60.40;;;;;;6198090;23;20154;-82
2021/05/25 06:33:27;;;;;;;6.53;4.50;;;18.60;60.00;;;;;;6145754;23;20191;-83
2021/05/25 06:36:00;;;;;;;7.85;4.28;;;18.60;60.00;;;;;;6169222;23;20127;-83
2021/05/25 06:38:26;;;;;;;7.32;4.55;;;18.60;60.00;;;;;;6143120;23;20147;-83
2021/05/25 06:40:52;;;;;;;5.07;3.80;;;18.60;60.10;;;;;;6142664;23;20139;-82
2021/05/25 06:43:18;;;;;;;4.68;4.00;;;18.60;60.00;;;;;;6118597;23;20590;-82
2021/05/25 06:45:45;;;;;;;5.63;4.43;;;18.60;59.90;;;;;;6141900;23;20277;-83
2021/05/25 06:48:11;;;;;;;4.78;3.65;;;18.70;59.90;;;;;;6142871;23;20170;-83
2021/05/25 06:50:37;;;;;;;5.35;4.03;;;18.70;59.50;;;;;;6165653;23;20142;-83
2021/05/25 06:53:12;;;;;;;5.38;4.40;;;18.70;59.50;;;;;;6141373;23;20610;-83
2021/05/25 06:55:39;;;;;;;6.38;4.20;;;18.70;59.70;;;;;;6169069;23;20142;-82
2021/05/25 06:58:05;;;;;;;7.05;4.10;;;18.70;59.60;;;;;;6144089;23;20150;-83
2021/05/25 07:00:40;;;;;;;4.70;3.95;;;18.70;59.70;;;;;;6168820;23;20135;-82
2021/05/25 07:03:07;;;;;;;5.82;3.83;;;18.70;59.70;;;;;;6143585;23;20149;-83
2021/05/25 07:05:33;;;;;;;5.45;4.20;;;18.70;59.80;;;;;;6143950;23;20138;-82
2021/05/25 07:08:01;;;;;;;6.53;3.95;;;18.70;59.60;;;;;;6167919;23;20131;-83
2021/05/25 07:10:28;;;;;;;6.78;4.10;;;18.70;59.70;;;;;;6168388;23;20178;-83
2021/05/25 07:12:54;;;;;;;5.15;3.90;;;18.70;59.70;;;;;;6143435;23;20657;-82
2021/05/25 07:15:20;;;;;;;4.78;3.88;;;18.70;59.80;;;;;;6168302;23;20190;-83
2021/05/25 07:17:47;;;;;;;4.88;3.90;;;18.70;59.70;;;;;;6117933;23;20157;-83
2021/05/25 07:20:25;;;;;;;4.93;4.00;;;18.70;59.70;;;;;;6167857;23;20233;-83
2021/05/25 07:22:54;;;;;;;5.18;3.85;;;18.70;59.80;;;;;;6165119;23;20138;-83
2021/05/25 07:25:21;;;;;;;5.40;4.00;;;18.70;59.70;;;;;;6171473;23;20140;-83
2021/05/25 07:27:57;;;;;;;4.95;3.85;;;18.70;59.50;;;;;;6171141;23;20234;-83
2021/05/25 07:30:24;;;;;;;5.88;4.30;;;18.70;59.40;;;;;;6146312;23;20221;-82
2021/05/25 07:32:52;;;;;;;5.85;4.10;;;18.70;59.80;;;;;;6172117;23;20185;-82
2021/05/25 07:35:20;;;;;;;4.97;4.03;;;18.70;59.20;;;;;;6123550;23;20574;-83
2021/05/25 07:37:55;;;;;;;5.05;3.80;;;18.80;59.00;;;;;;6145413;23;20601;-85
2021/05/25 07:40:22;;;;;;;5.00;4.00;;;18.80;59.10;;;;;;6166504;23;20130;-84
2021/05/25 07:42:47;;;;;;;4.53;3.53;;;18.80;59.10;;;;;;6142082;23;20143;-82
2021/05/25 07:45:15;;;;;;;7.07;4.07;;;18.80;58.70;;;;;;6142335;23;20262;-84
2021/05/25 07:47:41;;;;;;;4.72;3.90;;;18.90;59.00;;;;;;6125245;23;20204;-83
2021/05/25 07:50:15;;;;;;;5.13;4.20;;;18.80;59.10;;;;;;6125229;23;20143;-83
2021/05/25 07:52:58;;;;;;;5.50;3.85;;;18.80;59.10;;;;;;6179471;23;20178;-83
2021/05/25 07:55:30;;;;;;;6.15;3.88;;;18.90;58.90;;;;;;6153137;23;20150;-83
2021/05/25 07:57:57;;;;;;;6.07;4.20;;;18.90;58.50;;;;;;6154075;23;20139;-84
2021/05/25 08:00:38;;;;;;;5.63;3.70;;;18.90;59.00;;;;;;6152467;23;20143;-84
2021/05/25 08:03:05;;;;;;;4.85;4.00;;;18.90;58.80;;;;;;6173129;23;20165;-83
2021/05/25 08:05:32;;;;;;;5.75;3.80;;;18.90;58.90;;;;;;6149811;23;20147;-82
2021/05/25 08:08:00;;;;;;;4.20;3.72;;;18.90;58.80;;;;;;6149931;23;20139;-84
2021/05/25 08:10:28;;;;;;;4.72;3.70;;;18.90;58.50;;;;;;6127727;23;20170;-83
2021/05/25 08:13:00;;;;;;;5.35;3.88;;;18.90;58.30;;;;;;6151828;23;20170;-84
2021/05/25 08:15:27;;;;;;;5.30;3.95;;;18.90;58.20;;;;;;6176205;23;20186;-83
2021/05/25 08:20:32;;;;;;;5.65;3.80;;;19.00;58.40;;;;;;6177550;23;20167;-84
2021/05/25 08:23:09;;;;;;;4.88;3.85;;;19.00;58.50;;;;;;6176287;23;20135;-83
2021/05/25 08:25:37;;;;;;;5.70;3.95;;;18.90;58.60;;;;;;6151842;23;20237;-83
2021/05/25 08:28:12;;;;;;;6.57;4.20;;;19.00;58.40;;;;;;6150050;23;20151;-83
2021/05/25 08:30:41;;;;;;;4.93;3.80;;;19.00;58.60;;;;;;6150741;23;20150;-83
2021/05/25 08:33:16;;;;;;;4.65;3.72;;;19.00;58.10;;;;;;6151821;23;20191;-83
2021/05/25 08:36:04;;;;;;;4.60;3.60;;;19.00;58.20;;;;;;6152145;23;20146;-83
2021/05/25 08:38:40;;;;;;;6.43;4.03;;;19.10;58.20;;;;;;6200585;23;20139;-82
2021/05/25 08:41:07;;;;;;;5.45;3.65;;;19.10;58.10;;;;;;6174258;23;20154;-83
2021/05/25 08:43:33;;;;;;;4.85;4.03;;;19.10;58.00;;;;;;6173277;23;20146;-82
2021/05/25 08:46:01;;;;;;;4.10;3.40;;;19.10;58.40;;;;;;6124694;23;20713;-83
2021/05/25 08:48:27;;;;;;;4.78;3.78;;;19.10;58.30;;;;;;6149828;23;20139;-83
2021/05/25 08:50:58;;;;;;;5.55;3.75;;;19.00;58.20;;;;;;6150524;23;20222;-84
2021/05/25 08:53:27;;;;;;;4.72;3.65;;;19.10;57.90;;;;;;6149542;23;20189;-83
2021/05/25 08:55:58;;;;;;;4.63;3.63;;;19.10;57.90;;;;;;6150637;23;20151;-83
2021/05/25 08:58:26;;;;;;;6.60;3.97;;;19.10;57.70;;;;;;6174836;23;20123;-82
2021/05/25 09:00:55;;;;;;;6.22;3.95;;;19.00;57.80;;;;;;6175590;23;20131;-84
2021/05/25 09:03:23;;;;;;;5.40;3.75;;;19.10;57.80;;;;;;6150718;23;20154;-83
2021/05/25 09:05:55;;;;;;;6.00;3.50;;;19.10;57.50;;;;;;6150362;23;20237;-83
2021/05/25 09:08:22;;;;;;;4.10;3.38;;;19.10;57.30;;;;;;6177581;23;20606;-84
2021/05/25 09:10:51;;;;;;;6.15;3.55;;;19.20;57.30;;;;;;6150710;23;20150;-85
2021/05/25 09:13:23;;;;;;;7.57;4.32;;;19.30;57.20;;;;;;6150188;23;20205;-84
2021/05/25 09:15:54;;;;;;;6.95;4.03;;;19.20;57.20;;;;;;6150793;23;20197;-84
2021/05/25 09:18:29;;;;;;;6.20;3.75;;;19.20;57.70;;;;;;6126912;23;20147;-84
2021/05/25 09:21:00;;;;;;;5.22;3.80;;;19.20;57.40;;;;;;6150135;23;20139;-83
2021/05/25 09:23:42;;;;;;;5.18;3.67;;;19.20;57.60;;;;;;6149534;23;20575;-83
2021/05/25 09:26:19;;;;;;;8.32;3.97;;;19.20;57.10;;;;;;6173666;23;20163;-83
2021/05/25 09:29:13;;;;;;;9.55;3.70;;;19.20;57.50;;;;;;6175729;23;20154;-83
2021/05/25 09:31:47;;;;;;;4.50;3.50;;;19.20;57.50;;;;;;6149600;23;20158;-82
2021/05/25 09:34:24;;;;;;;7.78;3.88;;;19.20;57.50;;;;;;6150034;23;20179;-83
2021/05/25 09:37:13;;;;;;;6.18;3.72;;;19.10;57.80;;;;;;6150952;23;20153;-82
2021/05/25 09:39:49;;;;;;;7.75;3.97;;;19.20;57.70;;;;;;6178196;23;20146;-83
2021/05/25 09:42:19;;;;;;;7.78;4.22;;;19.10;57.80;;;;;;6175464;23;20181;-83
2021/05/25 09:44:59;;;;;;;4.28;3.17;;;19.10;57.70;;;;;;6153168;23;20614;-84
2021/05/25 09:47:52;;;;;;;5.68;3.72;;;19.10;57.30;;;;;;6152277;23;20150;-83
2021/05/25 09:50:39;;;;;;;7.70;3.53;;;19.10;57.10;;;;;;6178032;23;20199;-83
2021/05/25 09:53:30;;;;;;;5.95;3.47;;;19.10;57.50;;;;;;6176289;23;20170;-85
2021/05/25 09:56:05;;;;;;;3.58;3.25;;;19.10;57.40;;;;;;6151872;23;20161;-83
2021/05/25 09:58:34;;;;;;;5.05;3.03;;;19.10;57.10;;;;;;6150330;23;20146;-84
2021/05/25 10:05:03;;;;;;;4.32;3.15;;;19.20;57.00;;;;;;6199362;23;20142;-84
2021/05/25 10:08:14;;;;;;;5.18;3.55;;;19.10;56.70;;;;;;6198661;23;20678;-84
2021/05/25 10:10:41;;;;;;;5.47;3.50;;;19.10;57.00;;;;;;6197559;23;20154;-83
2021/05/25 10:13:16;;;;;;;5.22;3.28;;;19.20;56.50;;;;;;6148654;23;20178;-83
2021/05/25 10:16:01;;;;;;;4.43;3.15;;;19.20;56.50;;;;;;6145455;23;20198;-83
2021/05/25 10:21:24;;;;;;;7.63;3.58;;;19.20;56.80;;;;;;6150974;23;20213;-82
2021/05/25 10:24:34;;;;;;;5.00;3.67;;;19.10;56.70;;;;;;6151942;23;20150;-84
2021/05/25 10:27:07;;;;;;;4.88;3.10;;;19.20;55.40;;;;;;6171745;23;20197;-82
2021/05/25 10:36:21;;;;;;;4.25;3.38;;;19.20;55.80;;;;;;6200063;23;20138;-82
2021/05/25 10:38:51;;;;;;;5.10;3.67;;;19.10;56.20;;;;;;6147825;23;20151;-82
2021/05/25 10:41:54;;;;;;;4.47;3.22;;;19.10;55.70;;;;;;6172875;23;20206;-82
2021/05/25 10:44:49;;;;;;;4.93;3.20;;;19.10;55.50;;;;;;6196845;23;20158;-83
2021/05/25 10:47:34;;;;;;;5.20;3.17;;;19.10;55.70;;;;;;6174581;23;20151;-83
2021/05/25 10:56:44;;;;;;;6.95;3.58;;;19.10;55.10;;;;;;6200924;23;20181;-82
2021/05/25 10:59:34;;;;;;;4.53;3.50;;;19.10;55.20;;;;;;6124657;23;20158;-82
2021/05/25 11:02:09;;;;;;;5.07;3.47;;;19.10;55.30;;;;;;6201529;23;20131;-83
2021/05/25 11:04:38;;;;;;;3.65;2.90;;;19.10;55.00;;;;;;6178779;23;20146;-83
2021/05/25 11:07:45;;;;;;;4.57;3.35;;;19.10;54.60;;;;;;6154296;23;20130;-83
2021/05/25 11:14:17;;;;;;;6.28;3.15;;;19.10;54.90;;;;;;6203583;23;20518;-83
2021/05/25 11:20:32;;;;;;;4.30;2.90;;;19.10;54.80;;;;;;6199557;23;20214;-84
2021/05/25 11:23:27;;;;;;;4.35;2.90;;;19.10;53.90;;;;;;6172691;23;20470;-83
2021/05/25 11:25:55;;;;;;;5.95;3.20;;;19.20;53.70;;;;;;6199609;23;20151;-83
2021/05/25 11:28:59;;;;;;;3.85;3.08;;;19.20;53.80;;;;;;6150686;23;20229;-83
2021/05/25 11:31:38;;;;;;;3.33;2.95;;;19.20;53.80;;;;;;6072181;23;20153;-83
2021/05/25 11:34:05;;;;;;;4.60;3.33;;;19.20;53.20;;;;;;6171685;23;20162;-83
2021/05/25 11:36:40;;;;;;;3.42;2.90;;;19.20;53.60;;;;;;6147382;23;20150;-84
2021/05/25 11:52:55;;;;;;;4.93;3.60;;;19.10;52.80;;;;;;6202622;23;20599;-84
2021/05/25 11:55:24;;;;;;;2.90;2.60;;;19.10;52.80;;;;;;6175327;23;20153;-83
2021/05/25 11:57:55;;;;;;;3.20;2.85;;;19.10;52.90;;;;;;6151831;23;20154;-83
2021/05/25 12:00:27;;;;;;;3.55;3.03;;;19.10;52.60;;;;;;6152773;23;20138;-83
2021/05/25 12:03:09;;;;;;;3.70;2.97;;;19.10;53.10;;;;;;6127245;23;20147;-86
2021/05/25 12:05:39;;;;;;;3.08;2.78;;;19.10;52.10;;;;;;6152185;23;20266;-84
2021/05/25 12:08:10;;;;;;;4.55;2.50;;;19.20;52.50;;;;;;6149776;23;20150;-85
2021/05/25 12:10:44;;;;;;;3.53;3.13;;;19.20;51.70;;;;;;6153363;23;20166;-84
2021/05/25 12:13:18;;;;;;;3.05;2.53;;;19.20;52.00;;;;;;6178152;23;20179;-84
2021/05/25 12:15:48;;;;;;;4.53;2.88;;;19.20;51.90;;;;;;6146307;23;20197;-83
2021/05/25 12:18:15;;;;;;;3.33;2.95;;;19.20;52.10;;;;;;6147062;23;20177;-83
2021/05/25 12:20:45;;;;;;;3.30;3.00;;;19.10;51.80;;;;;;6143240;23;20151;-83
2021/05/25 12:23:14;;;;;;;4.93;3.10;;;19.10;52.20;;;;;;6172261;23;20135;-83
2021/05/25 12:25:40;;;;;;;4.22;3.00;;;19.10;51.50;;;;;;6147840;23;20142;-84
2021/05/25 12:28:14;;;;;;;4.43;2.70;;;19.10;51.70;;;;;;6122109;23;20139;-83
2021/05/25 12:30:52;;;;;;;3.15;2.80;;;19.10;51.40;;;;;;6172435;23;20134;-83
2021/05/25 12:33:26;;;;;;;4.93;3.05;;;19.10;51.40;;;;;;6174033;23;20163;-83
2021/05/25 12:36:23;;;;;;;4.88;3.22;;;19.10;51.50;;;;;;6130033;23;20135;-84
2021/05/25 12:39:01;;;;;;;3.67;2.90;;;19.10;51.70;;;;;;6182504;23;20578;-85
2021/05/25 12:41:38;;;;;;;4.63;3.03;;;19.10;51.50;;;;;;6153543;23;20131;-84
2021/05/25 12:44:28;;;;;;;5.90;3.10;;;19.10;51.30;;;;;;6178641;23;20146;-84
2021/05/25 12:46:58;;;;;;;3.42;3.10;;;19.10;51.20;;;;;;6157328;23;20222;-84
2021/05/25 12:49:32;;;;;;;3.17;2.72;;;19.10;51.30;;;;;;6154672;23;20509;-84
2021/05/25 12:52:41;;;;;;;4.25;3.00;;;19.10;51.20;;;;;;6133096;23;20147;-84
2021/05/25 12:55:10;;;;;;;2.83;2.38;;;19.10;51.00;;;;;;6179542;23;20162;-87
2021/05/25 12:57:56;;;;;;;3.78;2.70;;;19.20;50.70;;;;;;6129290;23;20170;-85
2021/05/25 13:00:33;;;;;;;3.63;2.90;;;19.20;51.00;;;;;;6184250;23;20154;-84
2021/05/25 13:03:04;;;;;;;3.28;2.80;;;19.10;51.00;;;;;;6181413;23;20151;-86
2021/05/25 13:05:42;;;;;;;3.78;3.05;;;19.10;50.90;;;;;;6153159;23;20161;-84
2021/05/25 13:08:12;;;;;;;2.72;2.50;;;19.20;50.70;;;;;;6131957;23;20210;-84
2021/05/25 13:10:52;;;;;;;3.22;2.92;;;19.10;50.60;;;;;;6132356;23;20214;-85
2021/05/25 13:13:49;;;;;;;3.83;2.80;;;19.20;50.70;;;;;;6157749;23;20182;-85
2021/05/25 13:19:51;;;;;;;3.67;2.97;;;19.20;50.40;;;;;;6202265;23;20142;-82
2021/05/25 13:22:23;;;;;;;3.30;3.00;;;19.20;50.50;;;;;;6132486;23;20154;-83
2021/05/25 13:25:05;;;;;;;3.97;3.10;;;19.20;50.50;;;;;;6180895;23;20196;-83
2021/05/25 13:27:39;;;;;;;3.70;2.67;;;19.20;50.60;;;;;;6181801;23;20151;-82
2021/05/25 13:30:12;;;;;;;3.25;2.83;;;19.20;50.70;;;;;;6182783;23;20150;-82
2021/05/25 13:32:50;;;;;;;3.65;2.78;;;19.10;50.70;;;;;;6158664;23;20201;-83
2021/05/25 13:35:31;;;;;;;3.38;2.83;;;19.10;50.70;;;;;;6155713;23;20150;-83
2021/05/25 13:38:07;;;;;;;3.45;3.13;;;19.10;50.70;;;;;;6153826;23;20258;-83
2021/05/25 13:40:45;;;;;;;3.33;3.03;;;19.10;50.60;;;;;;6155903;23;20150;-82
2021/05/25 13:43:12;;;;;;;3.22;2.88;;;19.10;50.70;;;;;;6155496;23;20169;-83
2021/05/25 13:45:55;;;;;;;3.40;2.97;;;19.10;50.80;;;;;;6178958;23;20223;-82
2021/05/25 13:48:22;;;;;;;3.20;2.90;;;19.10;50.80;;;;;;6181451;23;20139;-83
2021/05/25 13:51:05;;;;;;;3.75;2.80;;;19.10;50.90;;;;;;6180219;23;20151;-82
2021/05/25 13:53:42;;;;;;;3.33;3.03;;;19.10;50.50;;;;;;6154922;23;20217;-83
2021/05/25 13:56:17;;;;;;;3.22;2.70;;;19.10;50.60;;;;;;6180104;23;20594;-82
2021/05/25 13:58:45;;;;;;;2.75;2.47;;;19.10;50.60;;;;;;6181117;23;20154;-83
2021/05/25 14:01:31;;;;;;;3.90;2.75;;;19.10;50.30;;;;;;6155453;23;20209;-82